Time;durP1;ratioP1;P1;durP2;ratioP2;P2;SDS_P1;SDS_P2;PMS_P1;PMS_P2;Temp;Humidity;BMP_temperature;BMP_pressure;BME280_temperature;BME280_humidity;BME280_pressure;Samples;Min_cycle;Max_cycle;Signal;HPM_P1;HPM_P2
2022/01/06 00:01:10;;;;;;;1.52;1.42;;;15.00;66.20;;;;;;4995809;28;20039;-23
2022/01/06 00:03:37;;;;;;;1.00;1.00;;;15.00;66.00;;;;;;4996237;28;20479;-20
2022/01/06 00:06:05;;;;;;;1.27;1.17;;;15.00;66.00;;;;;;4997421;28;20042;-21
2022/01/06 00:08:33;;;;;;;1.40;1.40;;;15.00;65.50;;;;;;4996481;28;20129;-21
2022/01/06 00:10:59;;;;;;;1.30;1.20;;;15.00;65.70;;;;;;4995338;28;20046;-20
2022/01/06 00:13:35;;;;;;;1.13;1.02;;;15.00;65.50;;;;;;4995810;28;20042;-22
2022/01/06 00:16:13;;;;;;;1.35;1.30;;;15.00;65.90;;;;;;4997184;28;20077;-22
2022/01/06 00:24:07;;;;;;;1.33;1.25;;;15.00;65.50;;;;;;4992346;28;20173;-21
2022/01/06 00:26:32;;;;;;;1.10;1.10;;;15.00;65.50;;;;;;4995986;28;20069;-22
2022/01/06 00:28:58;;;;;;;1.17;1.10;;;15.00;65.50;;;;;;4996637;28;20057;-20
2022/01/06 00:31:24;;;;;;;1.38;1.27;;;15.00;65.60;;;;;;4995196;28;20491;-19
2022/01/06 00:33:49;;;;;;;1.10;1.10;;;14.90;65.70;;;;;;4996650;28;20050;-22
2022/01/06 00:36:15;;;;;;;1.20;1.10;;;14.90;65.60;;;;;;4996627;28;20066;-22
2022/01/06 00:38:40;;;;;;;0.77;0.77;;;15.00;65.60;;;;;;4996067;28;20396;-22
2022/01/06 00:41:06;;;;;;;1.15;1.15;;;15.00;65.70;;;;;;4996113;28;20046;-20
2022/01/06 00:43:31;;;;;;;1.02;1.02;;;15.00;65.60;;;;;;4995334;28;20050;-22
2022/01/06 00:45:57;;;;;;;1.20;1.10;;;15.00;65.50;;;;;;4996527;28;20046;-22
2022/01/06 00:48:23;;;;;;;1.40;1.30;;;15.00;65.50;;;;;;4995486;28;20050;-22
2022/01/06 00:50:48;;;;;;;1.27;1.17;;;15.00;65.70;;;;;;4995892;28;20126;-22
2022/01/06 00:53:14;;;;;;;1.35;1.25;;;15.00;65.60;;;;;;4996328;28;20096;-22
2022/01/06 00:55:40;;;;;;;1.23;1.10;;;15.00;66.40;;;;;;4995380;28;20038;-21
2022/01/06 00:58:05;;;;;;;0.98;0.98;;;15.00;65.50;;;;;;4995326;28;20050;-19
2022/01/06 01:00:38;;;;;;;1.05;1.05;;;15.00;65.60;;;;;;4994922;28;20126;-22
2022/01/06 01:03:14;;;;;;;1.30;1.20;;;15.00;65.80;;;;;;4996196;28;20443;-22
2022/01/06 01:05:41;;;;;;;1.20;1.20;;;15.00;65.30;;;;;;4975775;28;20585;-21
2022/01/06 01:08:07;;;;;;;1.25;1.15;;;15.00;65.50;;;;;;4976598;28;20046;-22
2022/01/06 01:10:32;;;;;;;0.82;0.82;;;15.00;65.70;;;;;;4975330;28;20053;-23
2022/01/06 01:12:58;;;;;;;1.23;1.23;;;15.00;65.50;;;;;;4976362;28;20054;-24
2022/01/06 01:15:24;;;;;;;1.30;1.23;;;15.00;65.40;;;;;;4975498;28;20054;-20
2022/01/06 01:17:50;;;;;;;1.10;1.10;;;14.90;65.40;;;;;;4976588;28;20073;-23
2022/01/06 01:20:17;;;;;;;1.10;1.10;;;15.00;65.40;;;;;;4976476;28;20101;-21
2022/01/06 01:22:42;;;;;;;1.13;1.13;;;15.00;65.30;;;;;;4996120;28;20050;-21
2022/01/06 01:25:08;;;;;;;1.17;1.17;;;14.90;65.50;;;;;;4995538;28;20050;-21
2022/01/06 01:27:40;;;;;;;0.90;0.90;;;15.00;65.40;;;;;;4994818;28;20053;-22
2022/01/06 01:30:12;;;;;;;0.95;0.95;;;15.00;65.50;;;;;;4995402;28;20514;-22
2022/01/06 01:32:38;;;;;;;0.90;0.90;;;15.00;65.50;;;;;;4994267;28;20050;-20
2022/01/06 01:35:07;;;;;;;0.88;0.88;;;14.90;65.50;;;;;;4993736;28;20034;-20
2022/01/06 01:37:32;;;;;;;0.88;0.88;;;15.00;65.30;;;;;;4994983;28;20053;-20
2022/01/06 01:39:58;;;;;;;0.70;0.70;;;15.00;65.30;;;;;;4995553;28;20490;-22
2022/01/06 01:42:24;;;;;;;1.10;1.00;;;14.90;65.50;;;;;;4994472;28;20070;-19
2022/01/06 01:44:51;;;;;;;0.80;0.80;;;14.90;65.30;;;;;;4995316;28;20042;-21
2022/01/06 01:47:27;;;;;;;1.00;1.00;;;14.90;65.30;;;;;;4995338;28;20042;-20
2022/01/06 01:49:57;;;;;;;0.93;0.93;;;14.90;65.50;;;;;;4994644;28;20042;-22
2022/01/06 01:52:22;;;;;;;1.00;1.00;;;14.90;65.40;;;;;;4994636;28;20165;-21
2022/01/06 01:54:49;;;;;;;1.00;1.00;;;15.00;65.10;;;;;;4995177;28;20510;-22
2022/01/06 01:57:15;;;;;;;0.90;0.90;;;15.00;65.10;;;;;;4994939;28;20514;-22
2022/01/06 01:59:40;;;;;;;1.35;1.20;;;14.90;65.40;;;;;;4994568;28;20034;-22
2022/01/06 02:02:06;;;;;;;0.98;0.93;;;14.90;65.40;;;;;;4994654;28;20050;-18
2022/01/06 02:04:33;;;;;;;1.20;1.10;;;14.90;65.40;;;;;;4994205;28;20042;-22
2022/01/06 02:06:59;;;;;;;1.02;1.00;;;14.90;65.50;;;;;;4995120;28;20046;-22
2022/01/06 02:09:24;;;;;;;1.02;1.02;;;15.00;65.40;;;;;;4994052;28;20056;-20
2022/01/06 02:11:50;;;;;;;1.10;1.10;;;14.90;65.30;;;;;;4994507;28;20491;-23
2022/01/06 02:14:16;;;;;;;1.08;1.08;;;14.90;65.30;;;;;;4995222;28;20042;-22
2022/01/06 02:16:42;;;;;;;1.30;1.17;;;14.90;65.20;;;;;;4994371;28;20042;-24
2022/01/06 02:19:07;;;;;;;0.90;0.90;;;14.90;65.30;;;;;;4994962;28;20096;-22
2022/01/06 02:21:39;;;;;;;1.15;1.05;;;14.90;65.30;;;;;;4994093;28;20517;-23
2022/01/06 02:24:05;;;;;;;0.98;0.95;;;14.90;65.00;;;;;;4990057;28;20034;-22
2022/01/06 02:26:30;;;;;;;0.85;0.85;;;14.90;65.20;;;;;;4989605;28;20053;-22
2022/01/06 02:28:56;;;;;;;1.10;0.98;;;14.90;65.50;;;;;;4975611;28;20063;-20
2022/01/06 02:31:21;;;;;;;1.27;1.17;;;14.90;65.30;;;;;;4991768;28;20093;-21
2022/01/06 02:33:48;;;;;;;0.80;0.80;;;14.90;65.30;;;;;;4993941;28;20050;-22
2022/01/06 02:36:14;;;;;;;0.80;0.80;;;14.90;65.50;;;;;;4993484;28;20077;-22
2022/01/06 02:38:40;;;;;;;0.73;0.73;;;14.90;65.20;;;;;;4994532;28;20047;-23
2022/01/06 02:41:05;;;;;;;0.80;0.80;;;14.90;65.30;;;;;;4994451;28;20042;-22
2022/01/06 02:43:31;;;;;;;0.80;0.80;;;14.90;65.20;;;;;;4993865;28;20630;-22
2022/01/06 02:45:57;;;;;;;0.80;0.80;;;14.90;65.20;;;;;;4994810;28;20046;-22
2022/01/06 02:48:23;;;;;;;0.70;0.70;;;14.90;65.50;;;;;;5013410;28;20050;-22
2022/01/06 02:50:49;;;;;;;0.80;0.80;;;14.90;65.10;;;;;;4997504;28;20411;-20
2022/01/06 02:53:15;;;;;;;1.08;1.08;;;14.90;65.30;;;;;;4998143;28;20050;-20
2022/01/06 02:55:47;;;;;;;0.75;0.75;;;14.90;65.20;;;;;;4997299;28;20553;-20
2022/01/06 02:58:13;;;;;;;0.90;0.90;;;14.90;65.00;;;;;;4997562;28;20049;-23
2022/01/06 03:00:39;;;;;;;0.80;0.80;;;14.90;65.20;;;;;;4996715;28;20498;-23
2022/01/06 03:03:04;;;;;;;1.00;0.98;;;14.90;65.20;;;;;;4997857;28;20129;-20
2022/01/06 03:05:30;;;;;;;0.85;0.85;;;14.90;65.20;;;;;;4996502;28;20058;-20
2022/01/06 03:07:55;;;;;;;0.75;0.75;;;14.90;65.20;;;;;;4997510;28;20073;-22
2022/01/06 03:10:22;;;;;;;0.80;0.80;;;14.90;65.10;;;;;;4985425;28;20104;-21
2022/01/06 03:12:48;;;;;;;0.80;0.80;;;14.80;65.10;;;;;;4977459;28;20050;-20
2022/01/06 03:15:23;;;;;;;0.60;0.60;;;14.90;65.20;;;;;;4978767;28;20053;-23
2022/01/06 03:17:51;;;;;;;0.80;0.80;;;14.90;65.20;;;;;;4977753;28;20042;-21
2022/01/06 03:20:17;;;;;;;0.90;0.90;;;14.90;65.30;;;;;;4978325;28;20538;-21
2022/01/06 03:22:43;;;;;;;0.80;0.80;;;14.90;65.10;;;;;;4978114;28;20034;-21
2022/01/06 03:25:09;;;;;;;0.85;0.85;;;14.90;65.30;;;;;;4998132;28;20053;-22
2022/01/06 03:27:35;;;;;;;0.80;0.80;;;14.90;65.00;;;;;;4996651;28;20042;-21
2022/01/06 03:30:01;;;;;;;0.80;0.80;;;14.80;64.90;;;;;;4997776;28;20039;-20
2022/01/06 03:32:27;;;;;;;1.20;1.10;;;14.90;64.90;;;;;;4996386;28;20050;-19
2022/01/06 03:34:52;;;;;;;0.73;0.70;;;14.90;65.20;;;;;;4993218;28;20065;-21
2022/01/06 03:37:18;;;;;;;0.77;0.77;;;14.90;65.00;;;;;;4995249;28;20066;-22
2022/01/06 03:39:44;;;;;;;1.00;1.00;;;14.80;65.20;;;;;;4995195;28;20384;-21
2022/01/06 03:42:10;;;;;;;0.93;0.93;;;14.90;65.00;;;;;;4995746;28;20065;-19
2022/01/06 03:44:36;;;;;;;0.95;0.95;;;14.80;65.10;;;;;;4994220;28;20042;-21
2022/01/06 03:47:01;;;;;;;0.77;0.77;;;14.80;65.10;;;;;;4995895;28;20077;-22
2022/01/06 03:49:27;;;;;;;0.85;0.85;;;14.90;64.90;;;;;;4995292;28;20039;-21
2022/01/06 03:51:53;;;;;;;0.90;0.90;;;14.80;64.90;;;;;;4995748;28;20049;-22
2022/01/06 03:54:18;;;;;;;0.70;0.70;;;14.90;64.80;;;;;;4995600;28;20043;-20
2022/01/06 03:56:45;;;;;;;0.70;0.70;;;14.90;64.80;;;;;;4996225;28;20151;-20
2022/01/06 03:59:11;;;;;;;0.90;0.75;;;14.90;64.80;;;;;;4997159;28;20472;-20
2022/01/06 04:01:37;;;;;;;0.70;0.70;;;14.80;65.10;;;;;;4996546;28;20082;-21
2022/01/06 04:04:02;;;;;;;0.80;0.80;;;14.80;65.00;;;;;;4997368;28;20039;-21
2022/01/06 04:06:28;;;;;;;0.77;0.77;;;14.90;65.00;;;;;;4996509;28;20522;-18
2022/01/06 04:08:54;;;;;;;0.70;0.70;;;14.90;64.60;;;;;;4996939;28;20051;-23
2022/01/06 04:11:19;;;;;;;0.88;0.88;;;14.90;64.70;;;;;;4996522;28;20100;-20
2022/01/06 04:13:45;;;;;;;0.90;0.90;;;14.80;64.80;;;;;;4996264;28;20150;-22
2022/01/06 04:16:14;;;;;;;0.70;0.70;;;14.90;65.00;;;;;;4997062;28;20491;-22
2022/01/06 04:18:39;;;;;;;0.85;0.80;;;14.80;64.80;;;;;;4996044;28;20507;-21
2022/01/06 04:21:06;;;;;;;0.57;0.57;;;14.80;64.80;;;;;;4996578;28;20075;-22
2022/01/06 04:23:35;;;;;;;0.70;0.70;;;14.90;64.80;;;;;;4995854;28;20125;-21
2022/01/06 04:26:00;;;;;;;0.75;0.75;;;14.80;64.80;;;;;;4996340;28;20059;-20
2022/01/06 04:28:26;;;;;;;0.60;0.52;;;14.80;65.00;;;;;;4996036;28;20069;-24
2022/01/06 04:30:52;;;;;;;0.80;0.80;;;14.80;65.50;;;;;;4995414;28;20109;-21
2022/01/06 04:33:17;;;;;;;0.80;0.80;;;14.90;64.70;;;;;;4996525;28;20042;-21
2022/01/06 04:35:43;;;;;;;0.60;0.60;;;14.80;64.60;;;;;;4996042;28;20133;-22
2022/01/06 04:38:09;;;;;;;0.50;0.50;;;14.90;64.60;;;;;;4996276;28;20042;-22
2022/01/06 04:40:34;;;;;;;0.68;0.68;;;14.90;64.60;;;;;;4995235;28;20073;-21
2022/01/06 04:43:00;;;;;;;0.60;0.60;;;14.80;65.00;;;;;;4996318;28;20050;-22
2022/01/06 04:45:25;;;;;;;0.75;0.75;;;14.80;64.70;;;;;;4996474;28;20053;-21
2022/01/06 04:47:51;;;;;;;0.60;0.60;;;14.80;64.80;;;;;;4995378;28;21821;-22
2022/01/06 04:50:17;;;;;;;0.60;0.60;;;14.80;64.80;;;;;;4996263;28;20388;-22
2022/01/06 04:52:42;;;;;;;0.63;0.63;;;14.90;64.80;;;;;;4995412;28;20406;-21
2022/01/06 04:55:08;;;;;;;0.75;0.75;;;14.90;64.50;;;;;;4996292;28;20049;-23
2022/01/06 04:57:34;;;;;;;0.73;0.73;;;14.90;64.60;;;;;;4995015;28;20042;-21
2022/01/06 04:59:59;;;;;;;0.75;0.75;;;14.80;64.80;;;;;;4996053;28;20048;-22
2022/01/06 05:02:25;;;;;;;0.70;0.70;;;14.80;64.70;;;;;;4994445;28;20073;-22
2022/01/06 05:04:51;;;;;;;0.68;0.68;;;14.80;64.70;;;;;;4981080;28;20047;-21
2022/01/06 05:07:16;;;;;;;0.63;0.63;;;14.80;64.80;;;;;;4976687;28;20046;-20
2022/01/06 05:09:42;;;;;;;0.50;0.50;;;14.90;64.80;;;;;;4974918;28;20050;-21
2022/01/06 05:12:07;;;;;;;0.65;0.65;;;14.90;64.50;;;;;;4976199;28;20110;-21
2022/01/06 05:14:33;;;;;;;0.70;0.70;;;14.90;64.60;;;;;;4976813;28;20054;-20
2022/01/06 05:17:00;;;;;;;0.60;0.60;;;14.80;64.60;;;;;;4975754;28;20035;-22
2022/01/06 05:19:25;;;;;;;0.60;0.60;;;14.80;64.60;;;;;;4975965;28;20045;-22
2022/01/06 05:21:52;;;;;;;0.80;0.80;;;14.80;64.50;;;;;;4975496;28;20043;-22
2022/01/06 05:24:18;;;;;;;0.52;0.52;;;14.90;64.70;;;;;;4989063;28;20054;-21
2022/01/06 05:26:44;;;;;;;0.82;0.75;;;14.90;64.70;;;;;;4994679;28;20034;-22
2022/01/06 05:29:10;;;;;;;0.82;0.82;;;14.80;64.50;;;;;;4995315;28;20049;-22
2022/01/06 05:31:36;;;;;;;0.80;0.80;;;14.80;64.70;;;;;;4994613;28;20046;-21
2022/01/06 05:34:03;;;;;;;0.65;0.65;;;14.90;64.50;;;;;;4995805;28;20104;-22
2022/01/06 05:36:28;;;;;;;0.60;0.60;;;14.90;64.40;;;;;;4995770;28;20153;-20
2022/01/06 05:38:54;;;;;;;0.50;0.50;;;14.90;64.60;;;;;;4994664;28;20062;-20
2022/01/06 05:41:21;;;;;;;0.60;0.60;;;14.90;64.50;;;;;;4995033;28;20035;-22
2022/01/06 05:43:47;;;;;;;0.73;0.70;;;14.80;64.50;;;;;;4994757;28;20041;-21
2022/01/06 05:46:12;;;;;;;1.00;0.70;;;14.80;64.60;;;;;;4995836;28;20046;-21
2022/01/06 05:48:38;;;;;;;0.70;0.70;;;14.80;64.70;;;;;;4994339;28;20038;-22
2022/01/06 05:51:03;;;;;;;0.82;0.80;;;14.80;64.50;;;;;;4995046;28;20049;-22
2022/01/06 05:53:30;;;;;;;0.65;0.65;;;14.80;64.40;;;;;;4995577;28;20566;-22
2022/01/06 05:55:55;;;;;;;0.70;0.70;;;14.80;64.70;;;;;;4994810;28;20038;-22
2022/01/06 05:58:21;;;;;;;0.50;0.50;;;14.80;64.70;;;;;;4994905;28;20034;-22
2022/01/06 06:00:47;;;;;;;0.80;0.80;;;14.80;64.70;;;;;;4994219;28;20129;-20
2022/01/06 06:03:12;;;;;;;0.70;0.70;;;14.80;64.40;;;;;;4994433;28;20065;-21
2022/01/06 06:05:41;;;;;;;0.63;0.63;;;14.80;64.60;;;;;;4975390;28;20065;-21
2022/01/06 06:08:06;;;;;;;0.80;0.80;;;14.80;64.50;;;;;;4975758;28;20039;-21
2022/01/06 06:10:32;;;;;;;0.70;0.70;;;14.90;64.40;;;;;;4975161;28;20131;-21
2022/01/06 06:12:58;;;;;;;0.60;0.60;;;14.80;64.70;;;;;;4973565;28;20097;-22
2022/01/06 06:15:23;;;;;;;0.77;0.77;;;14.80;64.50;;;;;;4975930;28;20066;-19
2022/01/06 06:17:49;;;;;;;0.70;0.70;;;14.80;64.60;;;;;;4974930;28;20061;-20
2022/01/06 06:20:15;;;;;;;0.50;0.50;;;14.80;64.40;;;;;;4975370;28;20047;-20
2022/01/06 06:22:41;;;;;;;0.80;0.80;;;14.80;64.50;;;;;;4977349;28;20043;-21
2022/01/06 06:25:06;;;;;;;0.80;0.80;;;14.70;64.50;;;;;;4979783;28;20039;-21
2022/01/06 06:27:32;;;;;;;0.60;0.60;;;14.80;64.80;;;;;;4985614;28;20039;-19
2022/01/06 06:29:57;;;;;;;0.50;0.50;;;14.80;64.50;;;;;;4997773;28;20043;-20
2022/01/06 06:32:25;;;;;;;0.60;0.60;;;14.80;64.50;;;;;;4999478;28;20507;-22
2022/01/06 06:34:52;;;;;;;0.57;0.57;;;14.80;64.40;;;;;;4998209;28;20066;-22
2022/01/06 06:37:18;;;;;;;0.60;0.60;;;14.70;64.40;;;;;;4998579;28;20049;-22
2022/01/06 06:39:44;;;;;;;0.55;0.55;;;14.80;64.70;;;;;;4997788;28;20489;-22
2022/01/06 06:42:09;;;;;;;0.60;0.60;;;14.80;64.30;;;;;;5013510;28;20049;-22
2022/01/06 06:44:35;;;;;;;0.60;0.60;;;14.80;64.40;;;;;;4998789;28;20050;-22
2022/01/06 06:47:01;;;;;;;0.60;0.60;;;14.90;64.30;;;;;;4994954;28;20100;-22
2022/01/06 06:49:28;;;;;;;0.60;0.60;;;14.80;64.40;;;;;;4998019;28;20518;-22
2022/01/06 06:51:54;;;;;;;0.60;0.60;;;14.80;64.10;;;;;;4996256;28;20122;-21
2022/01/06 06:54:19;;;;;;;0.63;0.63;;;14.80;64.40;;;;;;4998607;28;20526;-22
2022/01/06 06:56:45;;;;;;;0.60;0.60;;;14.80;64.30;;;;;;4997321;28;20038;-22
2022/01/06 06:59:11;;;;;;;0.50;0.50;;;14.80;64.30;;;;;;4998292;28;20073;-20
2022/01/06 07:01:36;;;;;;;0.50;0.50;;;14.70;64.40;;;;;;4998501;28;20045;-22
2022/01/06 07:04:02;;;;;;;0.80;0.80;;;14.80;64.50;;;;;;4997616;28;20043;-22
2022/01/06 07:06:27;;;;;;;0.50;0.50;;;14.80;64.30;;;;;;4998513;28;20048;-20
2022/01/06 07:08:53;;;;;;;0.73;0.70;;;14.80;64.30;;;;;;4997390;28;20062;-19
2022/01/06 07:11:21;;;;;;;0.77;0.77;;;14.80;64.30;;;;;;4997165;28;20056;-19
2022/01/06 07:13:47;;;;;;;0.50;0.50;;;14.80;64.20;;;;;;4997302;28;20046;-20
2022/01/06 07:16:12;;;;;;;0.70;0.70;;;14.80;64.40;;;;;;4997579;28;20137;-20
2022/01/06 07:18:38;;;;;;;0.55;0.55;;;14.80;64.40;;;;;;4997825;28;20050;-20
2022/01/06 07:21:03;;;;;;;0.80;0.80;;;14.80;64.30;;;;;;4996548;28;20047;-22
2022/01/06 07:23:29;;;;;;;0.65;0.60;;;14.80;64.50;;;;;;4996848;28;20053;-21
2022/01/06 07:25:54;;;;;;;0.50;0.50;;;14.80;64.00;;;;;;4997014;28;20042;-20
2022/01/06 07:28:20;;;;;;;0.63;0.63;;;14.80;64.30;;;;;;4997885;28;20066;-20
2022/01/06 07:30:46;;;;;;;0.57;0.57;;;14.80;64.20;;;;;;4996300;28;20047;-21
2022/01/06 07:33:11;;;;;;;0.90;0.90;;;14.80;64.20;;;;;;4994819;28;20125;-22
2022/01/06 07:35:37;;;;;;;0.43;0.43;;;14.80;64.30;;;;;;4996704;28;20049;-20
2022/01/06 07:38:02;;;;;;;0.70;0.70;;;14.80;64.40;;;;;;4996836;28;20050;-22
2022/01/06 07:40:28;;;;;;;0.88;0.88;;;14.80;64.10;;;;;;4997191;28;20049;-21
2022/01/06 07:42:53;;;;;;;0.60;0.60;;;14.70;64.40;;;;;;4996365;28;20101;-21
2022/01/06 07:45:19;;;;;;;1.00;0.90;;;14.70;64.20;;;;;;4997297;28;20062;-22
2022/01/06 07:47:58;;;;;;;0.57;0.57;;;14.80;64.30;;;;;;4995269;28;20103;-19
2022/01/06 07:50:26;;;;;;;0.55;0.50;;;14.70;64.40;;;;;;4997319;28;20050;-22
2022/01/06 07:52:52;;;;;;;0.80;0.80;;;14.80;64.30;;;;;;4996239;28;20487;-20
2022/01/06 07:55:17;;;;;;;0.90;0.90;;;14.80;65.00;;;;;;4997230;28;20035;-20
2022/01/06 07:57:43;;;;;;;0.70;0.70;;;14.70;64.40;;;;;;4996321;28;20075;-19
2022/01/06 08:00:09;;;;;;;0.70;0.70;;;14.70;64.40;;;;;;4996916;28;20042;-19
2022/01/06 08:02:34;;;;;;;0.60;0.60;;;14.80;64.40;;;;;;4993845;28;20077;-23
2022/01/06 08:05:00;;;;;;;0.70;0.70;;;14.80;64.30;;;;;;4995203;28;20050;-24
2022/01/06 08:07:26;;;;;;;0.50;0.50;;;14.80;64.30;;;;;;4996041;28;20134;-20
2022/01/06 08:09:51;;;;;;;0.80;0.75;;;14.70;64.30;;;;;;4994429;28;20133;-22
2022/01/06 08:12:17;;;;;;;0.75;0.75;;;14.80;64.40;;;;;;4997301;28;20038;-22
2022/01/06 08:14:42;;;;;;;0.43;0.43;;;14.70;64.30;;;;;;4996723;28;20045;-23
2022/01/06 08:17:08;;;;;;;0.70;0.70;;;14.70;64.20;;;;;;4996841;28;20042;-21
2022/01/06 08:19:34;;;;;;;0.77;0.77;;;14.80;64.20;;;;;;4997098;28;20049;-20
2022/01/06 08:21:59;;;;;;;0.55;0.55;;;14.80;64.00;;;;;;5016186;28;20048;-20
2022/01/06 08:24:25;;;;;;;0.80;0.80;;;14.80;64.10;;;;;;5017129;28;20037;-20
2022/01/06 08:26:50;;;;;;;0.65;0.65;;;14.80;64.00;;;;;;5015964;28;20041;-20
2022/01/06 08:29:16;;;;;;;0.88;0.88;;;14.80;64.10;;;;;;5016121;28;20033;-20
2022/01/06 08:31:41;;;;;;;0.70;0.70;;;14.80;64.00;;;;;;5016265;28;20100;-20
2022/01/06 08:34:07;;;;;;;0.75;0.75;;;14.80;64.00;;;;;;5016201;28;20049;-20
2022/01/06 08:36:33;;;;;;;1.70;0.73;;;14.70;64.00;;;;;;5009515;28;20110;-22
2022/01/06 08:38:58;;;;;;;0.80;0.80;;;14.80;64.20;;;;;;4996498;28;20092;-20
2022/01/06 08:41:24;;;;;;;0.70;0.70;;;14.80;64.10;;;;;;4996780;28;20076;-20
2022/01/06 08:43:49;;;;;;;0.80;0.80;;;14.70;64.10;;;;;;4995893;28;20050;-21
2022/01/06 08:46:15;;;;;;;0.70;0.70;;;14.80;64.10;;;;;;4996544;28;20049;-24
2022/01/06 08:48:41;;;;;;;0.75;0.75;;;14.70;64.10;;;;;;4996979;28;20057;-20
2022/01/06 08:51:06;;;;;;;0.60;0.60;;;14.80;64.10;;;;;;4996243;28;20423;-22
2022/01/06 08:53:32;;;;;;;0.90;0.90;;;14.70;64.20;;;;;;4996983;28;20100;-22
2022/01/06 08:55:57;;;;;;;0.90;0.90;;;14.70;64.00;;;;;;4996388;28;20046;-19
2022/01/06 08:58:23;;;;;;;0.70;0.70;;;14.70;64.00;;;;;;4996422;28;20046;-21
2022/01/06 09:00:48;;;;;;;1.00;1.00;;;14.70;64.30;;;;;;4996254;28;20080;-20
2022/01/06 09:03:14;;;;;;;0.80;0.80;;;14.70;64.30;;;;;;4995558;28;20050;-19
2022/01/06 09:05:40;;;;;;;0.80;0.80;;;14.70;64.10;;;;;;5008113;28;20045;-22
2022/01/06 09:08:06;;;;;;;0.90;0.90;;;14.70;63.90;;;;;;5015596;28;20061;-20
2022/01/06 09:10:33;;;;;;;0.75;0.75;;;14.70;64.00;;;;;;5009937;28;20061;-20
2022/01/06 09:13:00;;;;;;;1.00;1.00;;;14.70;64.10;;;;;;4995706;28;20050;-20
2022/01/06 09:15:26;;;;;;;1.02;1.00;;;14.70;64.10;;;;;;4996680;28;20045;-19
2022/01/06 09:17:51;;;;;;;0.80;0.80;;;14.80;63.90;;;;;;4995368;28;20065;-22
2022/01/06 09:20:17;;;;;;;0.77;0.77;;;14.70;63.80;;;;;;4996474;28;20038;-21
2022/01/06 09:22:43;;;;;;;0.90;0.90;;;14.70;63.90;;;;;;4996466;28;20046;-20
2022/01/06 09:25:09;;;;;;;0.90;0.90;;;14.70;64.10;;;;;;4995852;28;20037;-19
2022/01/06 09:27:35;;;;;;;0.90;0.90;;;14.70;64.10;;;;;;4996079;28;20050;-19
2022/01/06 09:30:00;;;;;;;0.85;0.80;;;14.70;64.10;;;;;;4995761;28;20074;-22
2022/01/06 09:32:26;;;;;;;1.02;1.02;;;14.70;64.90;;;;;;4996453;28;20046;-22
2022/01/06 09:34:52;;;;;;;0.90;0.90;;;14.70;63.90;;;;;;4995308;28;20061;-22
2022/01/06 09:37:18;;;;;;;0.70;0.70;;;14.70;64.00;;;;;;4995516;28;20085;-21
2022/01/06 09:39:45;;;;;;;0.77;0.77;;;14.70;64.10;;;;;;4995953;28;20042;-19
2022/01/06 09:42:12;;;;;;;0.80;0.80;;;14.80;64.00;;;;;;4995118;28;20426;-19
2022/01/06 09:44:38;;;;;;;0.63;0.63;;;14.80;64.00;;;;;;4996202;28;20077;-24
2022/01/06 09:47:07;;;;;;;0.70;0.70;;;14.80;63.90;;;;;;4994834;28;20403;-22
2022/01/06 09:49:37;;;;;;;0.70;0.70;;;14.90;63.80;;;;;;4996069;28;20041;-22
2022/01/06 09:52:06;;;;;;;0.60;0.60;;;14.90;63.70;;;;;;4995482;28;20104;-20
2022/01/06 09:54:35;;;;;;;0.70;0.70;;;14.90;63.60;;;;;;4996082;28;20041;-20
2022/01/06 09:57:01;;;;;;;0.80;0.80;;;14.90;63.80;;;;;;4994786;28;20391;-20
2022/01/06 09:59:26;;;;;;;0.70;0.70;;;14.90;63.80;;;;;;4994461;28;20092;-22
2022/01/06 10:01:52;;;;;;;0.47;0.47;;;14.90;63.90;;;;;;4995256;28;20042;-22
2022/01/06 10:04:27;;;;;;;0.57;0.57;;;15.00;63.90;;;;;;4993946;28;20056;-21
2022/01/06 10:06:59;;;;;;;0.80;0.80;;;15.00;64.00;;;;;;5014974;28;20046;-23
2022/01/06 10:09:25;;;;;;;0.70;0.70;;;15.00;64.00;;;;;;5015165;28;20050;-22
2022/01/06 10:11:54;;;;;;;0.60;0.60;;;15.00;64.00;;;;;;4997923;28;20038;-22
2022/01/06 10:14:29;;;;;;;0.65;0.65;;;14.90;63.90;;;;;;4995510;28;20053;-22
2022/01/06 10:16:55;;;;;;;0.70;0.70;;;15.00;64.20;;;;;;4995270;28;20038;-24
2022/01/06 10:19:20;;;;;;;0.70;0.70;;;14.90;64.30;;;;;;4994250;28;20101;-22
2022/01/06 10:21:48;;;;;;;0.70;0.70;;;14.90;64.30;;;;;;4995808;28;20022;-23
2022/01/06 10:24:17;;;;;;;0.73;0.73;;;14.90;64.30;;;;;;4995054;28;20046;-21
2022/01/06 10:26:56;;;;;;;0.60;0.60;;;14.90;64.30;;;;;;4995562;28;20057;-20
2022/01/06 10:29:22;;;;;;;0.98;0.60;;;14.90;64.30;;;;;;5014616;28;20462;-22
2022/01/06 10:31:48;;;;;;;0.60;0.60;;;15.00;64.40;;;;;;5015368;28;20564;-21
2022/01/06 10:34:13;;;;;;;0.77;0.77;;;15.00;64.40;;;;;;5014595;28;20041;-23
2022/01/06 10:36:40;;;;;;;0.80;0.80;;;15.00;64.30;;;;;;4999058;28;20035;-21
2022/01/06 10:39:08;;;;;;;0.77;0.60;;;15.00;64.30;;;;;;4994950;28;20042;-20
2022/01/06 10:41:35;;;;;;;0.82;0.82;;;15.00;64.40;;;;;;4994929;28;20042;-21
2022/01/06 10:44:00;;;;;;;0.82;0.82;;;15.00;64.40;;;;;;4994907;28;20046;-21
2022/01/06 10:46:31;;;;;;;0.70;0.70;;;15.00;64.30;;;;;;4995776;28;20038;-21
2022/01/06 10:49:01;;;;;;;0.70;0.70;;;15.00;64.10;;;;;;4994887;28;20081;-24
2022/01/06 10:51:45;;;;;;;0.43;0.43;;;15.00;64.00;;;;;;4995563;28;20066;-22
2022/01/06 10:54:23;;;;;;;0.90;0.90;;;15.00;64.10;;;;;;4995008;28;20125;-22
2022/01/06 10:57:12;;;;;;;0.80;0.80;;;15.00;64.10;;;;;;4995185;28;20418;-22
2022/01/06 10:59:38;;;;;;;0.80;0.77;;;15.00;64.20;;;;;;5014528;28;20041;-22
2022/01/06 11:02:04;;;;;;;0.80;0.80;;;15.00;64.10;;;;;;5013940;28;20392;-20
2022/01/06 11:04:29;;;;;;;0.70;0.70;;;15.00;64.30;;;;;;5008637;28;20461;-21
2022/01/06 11:06:55;;;;;;;0.85;0.85;;;15.00;64.30;;;;;;5014172;28;20050;-21
2022/01/06 11:09:21;;;;;;;0.77;0.77;;;15.00;64.40;;;;;;5017979;28;20046;-22
2022/01/06 11:14:25;;;;;;;0.80;0.80;;;15.00;64.30;;;;;;5017739;28;20034;-20
2022/01/06 11:16:50;;;;;;;0.73;0.73;;;15.00;64.40;;;;;;5018355;28;20038;-22
2022/01/06 11:19:16;;;;;;;0.60;0.60;;;15.00;64.30;;;;;;5017569;28;20038;-21
2022/01/06 11:21:44;;;;;;;0.70;0.70;;;15.00;64.40;;;;;;5017744;28;20681;-22
2022/01/06 11:24:11;;;;;;;1.20;0.70;;;15.00;64.40;;;;;;5015953;28;20053;-23
2022/01/06 11:26:36;;;;;;;0.63;0.63;;;15.00;64.40;;;;;;5017709;28;20042;-25
2022/01/06 11:29:02;;;;;;;0.70;0.70;;;15.00;64.40;;;;;;5014317;28;20041;-25
2022/01/06 11:31:34;;;;;;;0.70;0.70;;;15.00;64.30;;;;;;5016438;28;20593;-22
2022/01/06 11:34:10;;;;;;;0.80;0.80;;;15.00;64.30;;;;;;5017222;28;20053;-20
2022/01/06 11:36:35;;;;;;;0.70;0.70;;;15.00;64.20;;;;;;5018051;28;20119;-22
2022/01/06 11:39:04;;;;;;;0.60;0.60;;;15.00;64.20;;;;;;5017377;28;20046;-21
2022/01/06 11:41:37;;;;;;;0.60;0.50;;;15.00;64.20;;;;;;5016014;28;20584;-22
2022/01/06 11:44:18;;;;;;;0.80;0.80;;;15.00;64.20;;;;;;5017249;28;20107;-22
2022/01/06 11:46:44;;;;;;;0.63;0.63;;;15.00;64.30;;;;;;5016925;28;20042;-20
2022/01/06 11:49:10;;;;;;;0.98;0.98;;;15.00;64.30;;;;;;5017120;28;20053;-21
2022/01/06 11:51:37;;;;;;;0.93;0.93;;;15.00;64.30;;;;;;5016445;28;20410;-20
2022/01/06 11:54:19;;;;;;;0.90;0.90;;;15.00;64.40;;;;;;5016803;28;20045;-20
2022/01/06 11:56:49;;;;;;;0.60;0.60;;;15.00;64.30;;;;;;5017193;28;20553;-23
2022/01/06 11:59:15;;;;;;;0.90;0.90;;;15.00;64.40;;;;;;5016894;28;20048;-25
2022/01/06 12:01:50;;;;;;;0.60;0.60;;;15.00;64.40;;;;;;5017498;28;20133;-22
2022/01/06 12:04:17;;;;;;;0.60;0.60;;;15.00;64.40;;;;;;5008257;28;20061;-24
2022/01/06 12:06:43;;;;;;;0.60;0.60;;;15.00;64.40;;;;;;5017070;28;20506;-24
2022/01/06 12:09:18;;;;;;;0.63;0.63;;;15.00;64.40;;;;;;5015541;28;20564;-22
2022/01/06 12:11:45;;;;;;;0.70;0.70;;;15.00;64.40;;;;;;5000793;28;20058;-23
2022/01/06 12:14:12;;;;;;;0.70;0.70;;;14.90;64.30;;;;;;4997006;28;20051;-23
2022/01/06 12:16:38;;;;;;;0.70;0.70;;;15.00;64.40;;;;;;4997641;28;20046;-22
2022/01/06 12:19:23;;;;;;;0.65;0.57;;;15.00;64.40;;;;;;4996637;28;20054;-21
2022/01/06 12:21:48;;;;;;;0.77;0.73;;;15.00;64.40;;;;;;4997581;28;20042;-22
2022/01/06 12:24:14;;;;;;;0.80;0.80;;;15.00;64.40;;;;;;4996909;28;20129;-20
2022/01/06 12:26:40;;;;;;;0.80;0.80;;;15.00;64.20;;;;;;4996495;28;20038;-22
2022/01/06 12:29:20;;;;;;;0.63;0.63;;;15.00;64.10;;;;;;4996756;28;20042;-22
2022/01/06 12:31:47;;;;;;;1.10;0.80;;;15.00;64.30;;;;;;4995838;28;20092;-24
2022/01/06 12:34:14;;;;;;;0.65;0.60;;;15.00;64.20;;;;;;4996481;28;20042;-20
2022/01/06 12:36:43;;;;;;;0.60;0.60;;;15.00;64.20;;;;;;4997117;28;20046;-21
2022/01/06 12:39:16;;;;;;;0.60;0.60;;;14.90;64.20;;;;;;4996427;28;20057;-21
2022/01/06 12:41:42;;;;;;;0.60;0.60;;;14.90;64.10;;;;;;4996369;28;20069;-22
2022/01/06 12:44:08;;;;;;;0.50;0.50;;;15.00;64.00;;;;;;4995872;28;20660;-23
2022/01/06 12:46:38;;;;;;;0.50;0.50;;;15.00;64.00;;;;;;4996899;28;20046;-22
2022/01/06 12:49:08;;;;;;;0.60;0.60;;;15.00;64.10;;;;;;4996110;28;20125;-22
2022/01/06 12:51:38;;;;;;;0.47;0.47;;;15.00;64.10;;;;;;4996850;28;20054;-20
2022/01/06 12:54:13;;;;;;;0.50;0.50;;;14.90;64.90;;;;;;4996031;28;20049;-22